sensor_id;sensor_type;location;lat;lon;timestamp;P1;durP1;ratioP1;P2;durP2;ratioP2
18224;SDS011;9237;48.590;8.854;2023-07-20T00:02:21;0.70;;;0.70;;
18224;SDS011;9237;48.590;8.854;2023-07-20T00:04:48;0.60;;;0.60;;
18224;SDS011;9237;48.590;8.854;2023-07-20T00:07:15;0.60;;;0.60;;
18224;SDS011;9237;48.590;8.854;2023-07-20T00:09:41;0.70;;;0.70;;
18224;SDS011;9237;48.590;8.854;2023-07-20T00:12:08;0.60;;;0.60;;
18224;SDS011;9237;48.590;8.854;2023-07-20T00:14:35;0.70;;;0.70;;
18224;SDS011;9237;48.590;8.854;2023-07-20T00:17:03;0.70;;;0.70;;
18224;SDS011;9237;48.590;8.854;2023-07-20T00:19:31;0.60;;;0.60;;
18224;SDS011;9237;48.590;8.854;2023-07-20T00:21:58;0.60;;;0.60;;
18224;SDS011;9237;48.590;8.854;2023-07-20T00:24:25;0.60;;;0.60;;
18224;SDS011;9237;48.590;8.854;2023-07-20T00:26:52;0.70;;;0.70;;
18224;SDS011;9237;48.590;8.854;2023-07-20T00:29:19;0.70;;;0.70;;
18224;SDS011;9237;48.590;8.854;2023-07-20T00:31:45;0.70;;;0.70;;
18224;SDS011;9237;48.590;8.854;2023-07-20T00:34:13;0.67;;;0.67;;
18224;SDS011;9237;48.590;8.854;2023-07-20T00:36:40;0.60;;;0.60;;
18224;SDS011;9237;48.590;8.854;2023-07-20T00:39:07;0.60;;;0.60;;
18224;SDS011;9237;48.590;8.854;2023-07-20T00:41:34;0.70;;;0.70;;
18224;SDS011;9237;48.590;8.854;2023-07-20T00:44:01;0.70;;;0.70;;
18224;SDS011;9237;48.590;8.854;2023-07-20T00:46:28;0.70;;;0.70;;
18224;SDS011;9237;48.590;8.854;2023-07-20T00:48:55;0.70;;;0.70;;
18224;SDS011;9237;48.590;8.854;2023-07-20T00:51:23;0.70;;;0.70;;
18224;SDS011;9237;48.590;8.854;2023-07-20T00:53:52;0.60;;;0.60;;
18224;SDS011;9237;48.590;8.854;2023-07-20T00:56:19;0.70;;;0.70;;
18224;SDS011;9237;48.590;8.854;2023-07-20T00:58:47;0.60;;;0.60;;
18224;SDS011;9237;48.590;8.854;2023-07-20T01:01:14;0.70;;;0.70;;
18224;SDS011;9237;48.590;8.854;2023-07-20T01:03:41;0.70;;;0.70;;
18224;SDS011;9237;48.590;8.854;2023-07-20T01:06:10;0.70;;;0.70;;
18224;SDS011;9237;48.590;8.854;2023-07-20T01:08:47;0.60;;;0.60;;
18224;SDS011;9237;48.590;8.854;2023-07-20T01:11:22;0.70;;;0.70;;
18224;SDS011;9237;48.590;8.854;2023-07-20T01:13:55;0.70;;;0.70;;
18224;SDS011;9237;48.590;8.854;2023-07-20T01:16:22;0.60;;;0.60;;
18224;SDS011;9237;48.590;8.854;2023-07-20T01:18:49;0.60;;;0.60;;
18224;SDS011;9237;48.590;8.854;2023-07-20T01:21:18;0.60;;;0.60;;
18224;SDS011;9237;48.590;8.854;2023-07-20T01:24:00;0.60;;;0.60;;
18224;SDS011;9237;48.590;8.854;2023-07-20T01:30:02;0.63;;;0.63;;
18224;SDS011;9237;48.590;8.854;2023-07-20T01:32:41;0.60;;;0.60;;
18224;SDS011;9237;48.590;8.854;2023-07-20T01:35:10;0.60;;;0.60;;
18224;SDS011;9237;48.590;8.854;2023-07-20T01:37:40;0.70;;;0.70;;
18224;SDS011;9237;48.590;8.854;2023-07-20T01:40:08;0.60;;;0.60;;
18224;SDS011;9237;48.590;8.854;2023-07-20T01:42:36;0.60;;;0.60;;
18224;SDS011;9237;48.590;8.854;2023-07-20T01:45:03;0.70;;;0.70;;
18224;SDS011;9237;48.590;8.854;2023-07-20T01:47:30;0.60;;;0.60;;
18224;SDS011;9237;48.590;8.854;2023-07-20T01:49:58;0.70;;;0.70;;
18224;SDS011;9237;48.590;8.854;2023-07-20T01:52:25;0.70;;;0.70;;
18224;SDS011;9237;48.590;8.854;2023-07-20T01:54:52;0.70;;;0.70;;
18224;SDS011;9237;48.590;8.854;2023-07-20T01:57:18;0.70;;;0.70;;
18224;SDS011;9237;48.590;8.854;2023-07-20T01:59:45;0.70;;;0.70;;
18224;SDS011;9237;48.590;8.854;2023-07-20T02:02:12;0.70;;;0.70;;
18224;SDS011;9237;48.590;8.854;2023-07-20T02:04:39;0.70;;;0.70;;
18224;SDS011;9237;48.590;8.854;2023-07-20T02:07:07;0.70;;;0.70;;
18224;SDS011;9237;48.590;8.854;2023-07-20T02:09:34;0.70;;;0.70;;
18224;SDS011;9237;48.590;8.854;2023-07-20T02:12:00;0.70;;;0.70;;
18224;SDS011;9237;48.590;8.854;2023-07-20T02:14:27;0.70;;;0.70;;
18224;SDS011;9237;48.590;8.854;2023-07-20T02:16:54;0.70;;;0.70;;
18224;SDS011;9237;48.590;8.854;2023-07-20T02:19:24;0.70;;;0.70;;
18224;SDS011;9237;48.590;8.854;2023-07-20T02:21:51;0.70;;;0.70;;
18224;SDS011;9237;48.590;8.854;2023-07-20T02:24:19;0.70;;;0.70;;
18224;SDS011;9237;48.590;8.854;2023-07-20T02:26:46;0.70;;;0.70;;
18224;SDS011;9237;48.590;8.854;2023-07-20T02:29:13;0.70;;;0.70;;
18224;SDS011;9237;48.590;8.854;2023-07-20T02:31:40;0.70;;;0.70;;
18224;SDS011;9237;48.590;8.854;2023-07-20T02:34:08;0.60;;;0.60;;
18224;SDS011;9237;48.590;8.854;2023-07-20T02:36:35;0.70;;;0.70;;
18224;SDS011;9237;48.590;8.854;2023-07-20T02:39:01;0.70;;;0.70;;
18224;SDS011;9237;48.590;8.854;2023-07-20T02:41:30;0.70;;;0.70;;
18224;SDS011;9237;48.590;8.854;2023-07-20T02:43:58;0.70;;;0.70;;
18224;SDS011;9237;48.590;8.854;2023-07-20T02:46:26;0.70;;;0.70;;
18224;SDS011;9237;48.590;8.854;2023-07-20T02:48:55;0.70;;;0.70;;
18224;SDS011;9237;48.590;8.854;2023-07-20T02:51:21;0.70;;;0.70;;
18224;SDS011;9237;48.590;8.854;2023-07-20T02:53:48;0.70;;;0.70;;
18224;SDS011;9237;48.590;8.854;2023-07-20T02:56:15;0.70;;;0.70;;
18224;SDS011;9237;48.590;8.854;2023-07-20T02:58:44;0.70;;;0.70;;
18224;SDS011;9237;48.590;8.854;2023-07-20T03:01:11;0.60;;;0.60;;
18224;SDS011;9237;48.590;8.854;2023-07-20T03:03:40;0.70;;;0.70;;
18224;SDS011;9237;48.590;8.854;2023-07-20T03:06:10;0.70;;;0.70;;
18224;SDS011;9237;48.590;8.854;2023-07-20T03:08:37;0.70;;;0.70;;
18224;SDS011;9237;48.590;8.854;2023-07-20T03:11:06;0.63;;;0.63;;
18224;SDS011;9237;48.590;8.854;2023-07-20T03:13:33;0.70;;;0.70;;
18224;SDS011;9237;48.590;8.854;2023-07-20T03:16:01;0.70;;;0.70;;
18224;SDS011;9237;48.590;8.854;2023-07-20T03:18:28;0.70;;;0.70;;
18224;SDS011;9237;48.590;8.854;2023-07-20T03:20:54;0.70;;;0.70;;
18224;SDS011;9237;48.590;8.854;2023-07-20T03:23:21;0.70;;;0.70;;
18224;SDS011;9237;48.590;8.854;2023-07-20T03:25:48;0.70;;;0.70;;
18224;SDS011;9237;48.590;8.854;2023-07-20T03:28:15;0.70;;;0.70;;
18224;SDS011;9237;48.590;8.854;2023-07-20T03:30:41;0.70;;;0.70;;
18224;SDS011;9237;48.590;8.854;2023-07-20T03:33:09;0.80;;;0.80;;
18224;SDS011;9237;48.590;8.854;2023-07-20T03:35:36;0.70;;;0.70;;
18224;SDS011;9237;48.590;8.854;2023-07-20T03:38:03;0.60;;;0.60;;
18224;SDS011;9237;48.590;8.854;2023-07-20T03:40:30;0.70;;;0.70;;
18224;SDS011;9237;48.590;8.854;2023-07-20T03:42:57;0.70;;;0.70;;
18224;SDS011;9237;48.590;8.854;2023-07-20T03:45:24;0.70;;;0.70;;
18224;SDS011;9237;48.590;8.854;2023-07-20T03:47:50;0.70;;;0.70;;
18224;SDS011;9237;48.590;8.854;2023-07-20T03:50:18;0.63;;;0.63;;
18224;SDS011;9237;48.590;8.854;2023-07-20T03:52:45;0.70;;;0.70;;
18224;SDS011;9237;48.590;8.854;2023-07-20T03:55:12;0.60;;;0.60;;
18224;SDS011;9237;48.590;8.854;2023-07-20T03:57:40;0.70;;;0.70;;
18224;SDS011;9237;48.590;8.854;2023-07-20T04:00:08;0.60;;;0.60;;
18224;SDS011;9237;48.590;8.854;2023-07-20T04:02:37;0.60;;;0.60;;
18224;SDS011;9237;48.590;8.854;2023-07-20T04:05:04;0.60;;;0.60;;
18224;SDS011;9237;48.590;8.854;2023-07-20T04:07:32;0.70;;;0.70;;
18224;SDS011;9237;48.590;8.854;2023-07-20T04:09:59;0.70;;;0.70;;
18224;SDS011;9237;48.590;8.854;2023-07-20T04:12:26;0.70;;;0.70;;
18224;SDS011;9237;48.590;8.854;2023-07-20T04:14:52;0.67;;;0.67;;
18224;SDS011;9237;48.590;8.854;2023-07-20T04:17:19;0.67;;;0.67;;
18224;SDS011;9237;48.590;8.854;2023-07-20T04:19:46;0.70;;;0.70;;
18224;SDS011;9237;48.590;8.854;2023-07-20T04:22:13;0.70;;;0.70;;
18224;SDS011;9237;48.590;8.854;2023-07-20T04:24:41;0.60;;;0.60;;
18224;SDS011;9237;48.590;8.854;2023-07-20T04:27:08;0.60;;;0.60;;
18224;SDS011;9237;48.590;8.854;2023-07-20T04:29:35;0.70;;;0.70;;
18224;SDS011;9237;48.590;8.854;2023-07-20T04:32:02;0.70;;;0.70;;
18224;SDS011;9237;48.590;8.854;2023-07-20T04:34:29;0.60;;;0.60;;
18224;SDS011;9237;48.590;8.854;2023-07-20T04:36:56;0.60;;;0.60;;
18224;SDS011;9237;48.590;8.854;2023-07-20T04:39:23;0.60;;;0.60;;
18224;SDS011;9237;48.590;8.854;2023-07-20T04:41:51;0.70;;;0.70;;
18224;SDS011;9237;48.590;8.854;2023-07-20T04:44:17;0.67;;;0.67;;
18224;SDS011;9237;48.590;8.854;2023-07-20T04:46:44;0.60;;;0.60;;
18224;SDS011;9237;48.590;8.854;2023-07-20T04:49:11;0.70;;;0.70;;
18224;SDS011;9237;48.590;8.854;2023-07-20T04:51:38;0.70;;;0.70;;
18224;SDS011;9237;48.590;8.854;2023-07-20T04:54:05;0.70;;;0.70;;
18224;SDS011;9237;48.590;8.854;2023-07-20T04:56:32;0.70;;;0.70;;
18224;SDS011;9237;48.590;8.854;2023-07-20T04:59:00;0.70;;;0.70;;
18224;SDS011;9237;48.590;8.854;2023-07-20T05:01:27;0.60;;;0.60;;
18224;SDS011;9237;48.590;8.854;2023-07-20T05:03:54;0.60;;;0.60;;
18224;SDS011;9237;48.590;8.854;2023-07-20T05:06:21;0.70;;;0.70;;
18224;SDS011;9237;48.590;8.854;2023-07-20T05:08:47;0.70;;;0.70;;
18224;SDS011;9237;48.590;8.854;2023-07-20T05:11:14;0.70;;;0.70;;
18224;SDS011;9237;48.590;8.854;2023-07-20T05:13:41;0.60;;;0.60;;
18224;SDS011;9237;48.590;8.854;2023-07-20T05:16:09;0.60;;;0.60;;
18224;SDS011;9237;48.590;8.854;2023-07-20T05:18:36;0.70;;;0.70;;
18224;SDS011;9237;48.590;8.854;2023-07-20T05:21:03;0.63;;;0.63;;
18224;SDS011;9237;48.590;8.854;2023-07-20T05:23:31;0.60;;;0.60;;
18224;SDS011;9237;48.590;8.854;2023-07-20T05:25:58;0.60;;;0.60;;
18224;SDS011;9237;48.590;8.854;2023-07-20T05:28:25;0.60;;;0.60;;
18224;SDS011;9237;48.590;8.854;2023-07-20T05:30:52;0.60;;;0.60;;
18224;SDS011;9237;48.590;8.854;2023-07-20T05:33:21;0.60;;;0.60;;
18224;SDS011;9237;48.590;8.854;2023-07-20T05:35:48;0.60;;;0.60;;
18224;SDS011;9237;48.590;8.854;2023-07-20T05:38:15;0.60;;;0.60;;
18224;SDS011;9237;48.590;8.854;2023-07-20T05:40:44;0.60;;;0.60;;
18224;SDS011;9237;48.590;8.854;2023-07-20T05:43:12;0.50;;;0.50;;
18224;SDS011;9237;48.590;8.854;2023-07-20T05:45:41;0.60;;;0.60;;
18224;SDS011;9237;48.590;8.854;2023-07-20T05:48:08;0.60;;;0.60;;
18224;SDS011;9237;48.590;8.854;2023-07-20T05:50:37;0.60;;;0.60;;
18224;SDS011;9237;48.590;8.854;2023-07-20T05:53:04;0.60;;;0.60;;
18224;SDS011;9237;48.590;8.854;2023-07-20T05:55:31;0.60;;;0.60;;
18224;SDS011;9237;48.590;8.854;2023-07-20T05:57:58;0.60;;;0.60;;
18224;SDS011;9237;48.590;8.854;2023-07-20T06:00:25;0.60;;;0.60;;
18224;SDS011;9237;48.590;8.854;2023-07-20T06:02:52;0.60;;;0.60;;
18224;SDS011;9237;48.590;8.854;2023-07-20T06:05:20;0.50;;;0.50;;
18224;SDS011;9237;48.590;8.854;2023-07-20T06:07:50;0.60;;;0.60;;
18224;SDS011;9237;48.590;8.854;2023-07-20T06:10:17;0.50;;;0.50;;
18224;SDS011;9237;48.590;8.854;2023-07-20T06:12:43;0.50;;;0.50;;
18224;SDS011;9237;48.590;8.854;2023-07-20T06:15:23;0.60;;;0.60;;
18224;SDS011;9237;48.590;8.854;2023-07-20T06:17:51;0.50;;;0.50;;
18224;SDS011;9237;48.590;8.854;2023-07-20T06:20:19;0.53;;;0.53;;
18224;SDS011;9237;48.590;8.854;2023-07-20T06:22:45;0.60;;;0.60;;
18224;SDS011;9237;48.590;8.854;2023-07-20T06:25:14;0.50;;;0.50;;
18224;SDS011;9237;48.590;8.854;2023-07-20T06:27:41;0.60;;;0.60;;
18224;SDS011;9237;48.590;8.854;2023-07-20T06:30:09;0.50;;;0.50;;
18224;SDS011;9237;48.590;8.854;2023-07-20T06:32:36;0.50;;;0.50;;
18224;SDS011;9237;48.590;8.854;2023-07-20T06:35:04;0.60;;;0.60;;
18224;SDS011;9237;48.590;8.854;2023-07-20T06:37:32;0.50;;;0.50;;
18224;SDS011;9237;48.590;8.854;2023-07-20T06:39:59;0.50;;;0.50;;
18224;SDS011;9237;48.590;8.854;2023-07-20T06:42:27;0.60;;;0.60;;
18224;SDS011;9237;48.590;8.854;2023-07-20T06:44:54;0.50;;;0.50;;
18224;SDS011;9237;48.590;8.854;2023-07-20T06:47:20;0.60;;;0.60;;
18224;SDS011;9237;48.590;8.854;2023-07-20T06:49:47;0.60;;;0.60;;
18224;SDS011;9237;48.590;8.854;2023-07-20T06:52:14;0.50;;;0.50;;
18224;SDS011;9237;48.590;8.854;2023-07-20T06:54:42;0.60;;;0.60;;
18224;SDS011;9237;48.590;8.854;2023-07-20T06:57:08;0.60;;;0.60;;
18224;SDS011;9237;48.590;8.854;2023-07-20T06:59:37;0.50;;;0.50;;
18224;SDS011;9237;48.590;8.854;2023-07-20T07:02:04;0.57;;;0.57;;
18224;SDS011;9237;48.590;8.854;2023-07-20T07:04:31;0.50;;;0.50;;
18224;SDS011;9237;48.590;8.854;2023-07-20T07:06:58;0.50;;;0.50;;
18224;SDS011;9237;48.590;8.854;2023-07-20T07:09:25;0.60;;;0.60;;
18224;SDS011;9237;48.590;8.854;2023-07-20T07:11:52;0.50;;;0.50;;
18224;SDS011;9237;48.590;8.854;2023-07-20T07:14:19;0.50;;;0.50;;
18224;SDS011;9237;48.590;8.854;2023-07-20T07:16:48;0.50;;;0.50;;
18224;SDS011;9237;48.590;8.854;2023-07-20T07:19:14;0.50;;;0.50;;
18224;SDS011;9237;48.590;8.854;2023-07-20T07:21:41;0.60;;;0.60;;
18224;SDS011;9237;48.590;8.854;2023-07-20T07:24:08;0.50;;;0.50;;
18224;SDS011;9237;48.590;8.854;2023-07-20T07:26:35;0.43;;;0.43;;
18224;SDS011;9237;48.590;8.854;2023-07-20T07:29:02;0.40;;;0.40;;
18224;SDS011;9237;48.590;8.854;2023-07-20T07:31:29;0.40;;;0.40;;
18224;SDS011;9237;48.590;8.854;2023-07-20T07:33:58;0.40;;;0.40;;
18224;SDS011;9237;48.590;8.854;2023-07-20T07:36:25;0.40;;;0.40;;
18224;SDS011;9237;48.590;8.854;2023-07-20T07:38:51;0.40;;;0.40;;
18224;SDS011;9237;48.590;8.854;2023-07-20T07:41:18;0.50;;;0.50;;
18224;SDS011;9237;48.590;8.854;2023-07-20T07:43:45;0.50;;;0.50;;
18224;SDS011;9237;48.590;8.854;2023-07-20T07:46:12;0.40;;;0.40;;
18224;SDS011;9237;48.590;8.854;2023-07-20T07:48:39;0.40;;;0.40;;
18224;SDS011;9237;48.590;8.854;2023-07-20T07:51:08;0.40;;;0.40;;
18224;SDS011;9237;48.590;8.854;2023-07-20T07:53:35;0.40;;;0.40;;
18224;SDS011;9237;48.590;8.854;2023-07-20T07:56:02;0.40;;;0.40;;
18224;SDS011;9237;48.590;8.854;2023-07-20T07:58:30;0.40;;;0.40;;
18224;SDS011;9237;48.590;8.854;2023-07-20T08:00:56;0.50;;;0.50;;
18224;SDS011;9237;48.590;8.854;2023-07-20T08:03:23;0.40;;;0.40;;
18224;SDS011;9237;48.590;8.854;2023-07-20T08:05:51;0.40;;;0.40;;
18224;SDS011;9237;48.590;8.854;2023-07-20T08:08:21;0.40;;;0.40;;
18224;SDS011;9237;48.590;8.854;2023-07-20T08:10:48;0.40;;;0.40;;
18224;SDS011;9237;48.590;8.854;2023-07-20T08:13:15;0.40;;;0.40;;
18224;SDS011;9237;48.590;8.854;2023-07-20T08:15:46;0.40;;;0.40;;
18224;SDS011;9237;48.590;8.854;2023-07-20T08:18:16;0.50;;;0.50;;
18224;SDS011;9237;48.590;8.854;2023-07-20T08:20:43;0.40;;;0.40;;
18224;SDS011;9237;48.590;8.854;2023-07-20T08:23:10;0.40;;;0.40;;
18224;SDS011;9237;48.590;8.854;2023-07-20T08:25:38;0.50;;;0.50;;
18224;SDS011;9237;48.590;8.854;2023-07-20T08:28:08;0.40;;;0.40;;
18224;SDS011;9237;48.590;8.854;2023-07-20T08:30:39;0.50;;;0.50;;
18224;SDS011;9237;48.590;8.854;2023-07-20T08:33:07;0.50;;;0.50;;
18224;SDS011;9237;48.590;8.854;2023-07-20T08:35:34;0.50;;;0.50;;
18224;SDS011;9237;48.590;8.854;2023-07-20T08:38:01;0.50;;;0.50;;
18224;SDS011;9237;48.590;8.854;2023-07-20T08:40:29;0.50;;;0.50;;
18224;SDS011;9237;48.590;8.854;2023-07-20T08:42:57;0.40;;;0.40;;
18224;SDS011;9237;48.590;8.854;2023-07-20T08:45:25;0.40;;;0.40;;
18224;SDS011;9237;48.590;8.854;2023-07-20T08:47:53;0.40;;;0.40;;
18224;SDS011;9237;48.590;8.854;2023-07-20T08:50:22;0.40;;;0.40;;
18224;SDS011;9237;48.590;8.854;2023-07-20T08:52:50;0.47;;;0.47;;
18224;SDS011;9237;48.590;8.854;2023-07-20T08:55:19;0.40;;;0.40;;
18224;SDS011;9237;48.590;8.854;2023-07-20T08:57:47;0.50;;;0.50;;
18224;SDS011;9237;48.590;8.854;2023-07-20T09:00:17;0.50;;;0.50;;
18224;SDS011;9237;48.590;8.854;2023-07-20T09:02:46;0.40;;;0.40;;
18224;SDS011;9237;48.590;8.854;2023-07-20T09:05:16;0.50;;;0.50;;
18224;SDS011;9237;48.590;8.854;2023-07-20T09:07:43;0.50;;;0.50;;
18224;SDS011;9237;48.590;8.854;2023-07-20T09:10:10;0.50;;;0.50;;
18224;SDS011;9237;48.590;8.854;2023-07-20T09:12:38;0.40;;;0.40;;
18224;SDS011;9237;48.590;8.854;2023-07-20T09:15:06;0.50;;;0.50;;
18224;SDS011;9237;48.590;8.854;2023-07-20T09:17:35;0.40;;;0.40;;
18224;SDS011;9237;48.590;8.854;2023-07-20T09:20:03;0.50;;;0.50;;
18224;SDS011;9237;48.590;8.854;2023-07-20T09:22:33;0.40;;;0.40;;
18224;SDS011;9237;48.590;8.854;2023-07-20T09:25:00;0.40;;;0.40;;
18224;SDS011;9237;48.590;8.854;2023-07-20T09:27:34;0.40;;;0.40;;
18224;SDS011;9237;48.590;8.854;2023-07-20T09:30:02;0.40;;;0.40;;
18224;SDS011;9237;48.590;8.854;2023-07-20T09:32:30;0.40;;;0.40;;
18224;SDS011;9237;48.590;8.854;2023-07-20T09:34:58;0.40;;;0.40;;
18224;SDS011;9237;48.590;8.854;2023-07-20T09:37:24;0.45;;;0.45;;
18224;SDS011;9237;48.590;8.854;2023-07-20T09:39:52;0.45;;;0.45;;
18224;SDS011;9237;48.590;8.854;2023-07-20T09:42:19;0.40;;;0.40;;
18224;SDS011;9237;48.590;8.854;2023-07-20T09:44:50;0.40;;;0.40;;
18224;SDS011;9237;48.590;8.854;2023-07-20T09:47:21;0.40;;;0.40;;
18224;SDS011;9237;48.590;8.854;2023-07-20T09:49:48;0.40;;;0.40;;
18224;SDS011;9237;48.590;8.854;2023-07-20T09:52:16;0.40;;;0.40;;
18224;SDS011;9237;48.590;8.854;2023-07-20T09:54:44;0.40;;;0.40;;
18224;SDS011;9237;48.590;8.854;2023-07-20T09:57:12;0.40;;;0.40;;
18224;SDS011;9237;48.590;8.854;2023-07-20T09:59:39;0.40;;;0.40;;
18224;SDS011;9237;48.590;8.854;2023-07-20T10:02:08;0.30;;;0.30;;
18224;SDS011;9237;48.590;8.854;2023-07-20T10:04:45;0.40;;;0.40;;
18224;SDS011;9237;48.590;8.854;2023-07-20T10:07:13;0.30;;;0.30;;
18224;SDS011;9237;48.590;8.854;2023-07-20T10:09:42;0.38;;;0.38;;
18224;SDS011;9237;48.590;8.854;2023-07-20T10:12:10;0.40;;;0.40;;
18224;SDS011;9237;48.590;8.854;2023-07-20T10:14:38;0.40;;;0.40;;
18224;SDS011;9237;48.590;8.854;2023-07-20T10:17:09;0.40;;;0.40;;
18224;SDS011;9237;48.590;8.854;2023-07-20T10:19:41;0.40;;;0.40;;
18224;SDS011;9237;48.590;8.854;2023-07-20T10:22:12;0.40;;;0.40;;
18224;SDS011;9237;48.590;8.854;2023-07-20T10:24:44;0.40;;;0.40;;
18224;SDS011;9237;48.590;8.854;2023-07-20T10:27:12;0.40;;;0.40;;
18224;SDS011;9237;48.590;8.854;2023-07-20T10:29:40;0.30;;;0.30;;
18224;SDS011;9237;48.590;8.854;2023-07-20T10:32:08;0.40;;;0.40;;
18224;SDS011;9237;48.590;8.854;2023-07-20T10:34:35;0.30;;;0.30;;
18224;SDS011;9237;48.590;8.854;2023-07-20T10:37:03;0.30;;;0.30;;
18224;SDS011;9237;48.590;8.854;2023-07-20T10:39:31;0.40;;;0.40;;
18224;SDS011;9237;48.590;8.854;2023-07-20T10:42:03;0.30;;;0.30;;
18224;SDS011;9237;48.590;8.854;2023-07-20T10:44:33;0.30;;;0.30;;
18224;SDS011;9237;48.590;8.854;2023-07-20T10:47:03;0.30;;;0.30;;
18224;SDS011;9237;48.590;8.854;2023-07-20T10:49:34;0.30;;;0.30;;
18224;SDS011;9237;48.590;8.854;2023-07-20T10:52:03;0.30;;;0.30;;
18224;SDS011;9237;48.590;8.854;2023-07-20T10:54:33;0.30;;;0.30;;
18224;SDS011;9237;48.590;8.854;2023-07-20T10:59:51;0.30;;;0.30;;
18224;SDS011;9237;48.590;8.854;2023-07-20T11:02:41;0.40;;;0.40;;
18224;SDS011;9237;48.590;8.854;2023-07-20T11:05:12;0.40;;;0.40;;
18224;SDS011;9237;48.590;8.854;2023-07-20T11:08:05;0.30;;;0.30;;
18224;SDS011;9237;48.590;8.854;2023-07-20T11:10:35;0.38;;;0.38;;
18224;SDS011;9237;48.590;8.854;2023-07-20T11:13:18;0.35;;;0.35;;
18224;SDS011;9237;48.590;8.854;2023-07-20T11:15:53;0.32;;;0.32;;
18224;SDS011;9237;48.590;8.854;2023-07-20T11:18:29;0.30;;;0.30;;
18224;SDS011;9237;48.590;8.854;2023-07-20T11:20:57;0.30;;;0.30;;
18224;SDS011;9237;48.590;8.854;2023-07-20T11:23:24;0.30;;;0.30;;
18224;SDS011;9237;48.590;8.854;2023-07-20T11:25:52;0.30;;;0.30;;
18224;SDS011;9237;48.590;8.854;2023-07-20T11:28:20;0.30;;;0.30;;
18224;SDS011;9237;48.590;8.854;2023-07-20T11:30:50;0.30;;;0.30;;
18224;SDS011;9237;48.590;8.854;2023-07-20T11:33:18;0.25;;;0.25;;
18224;SDS011;9237;48.590;8.854;2023-07-20T11:35:45;0.30;;;0.30;;
18224;SDS011;9237;48.590;8.854;2023-07-20T11:38:12;0.30;;;0.30;;
18224;SDS011;9237;48.590;8.854;2023-07-20T11:40:42;0.30;;;0.30;;
18224;SDS011;9237;48.590;8.854;2023-07-20T11:43:09;0.30;;;0.30;;
18224;SDS011;9237;48.590;8.854;2023-07-20T11:45:39;0.30;;;0.30;;
18224;SDS011;9237;48.590;8.854;2023-07-20T11:48:06;0.30;;;0.30;;
18224;SDS011;9237;48.590;8.854;2023-07-20T11:50:38;0.30;;;0.30;;
18224;SDS011;9237;48.590;8.854;2023-07-20T11:53:05;0.30;;;0.30;;
18224;SDS011;9237;48.590;8.854;2023-07-20T11:55:32;0.30;;;0.30;;
18224;SDS011;9237;48.590;8.854;2023-07-20T11:58:03;0.30;;;0.30;;
18224;SDS011;9237;48.590;8.854;2023-07-20T12:00:30;0.30;;;0.30;;
18224;SDS011;9237;48.590;8.854;2023-07-20T12:02:59;0.30;;;0.30;;
18224;SDS011;9237;48.590;8.854;2023-07-20T12:05:26;0.30;;;0.30;;
18224;SDS011;9237;48.590;8.854;2023-07-20T12:07:54;0.30;;;0.30;;
18224;SDS011;9237;48.590;8.854;2023-07-20T12:10:24;0.20;;;0.20;;
18224;SDS011;9237;48.590;8.854;2023-07-20T12:12:52;0.30;;;0.30;;
18224;SDS011;9237;48.590;8.854;2023-07-20T12:15:22;0.30;;;0.30;;
18224;SDS011;9237;48.590;8.854;2023-07-20T12:17:51;0.30;;;0.30;;
18224;SDS011;9237;48.590;8.854;2023-07-20T12:20:27;0.30;;;0.30;;
18224;SDS011;9237;48.590;8.854;2023-07-20T12:22:56;0.30;;;0.30;;
18224;SDS011;9237;48.590;8.854;2023-07-20T12:25:31;0.30;;;0.30;;
18224;SDS011;9237;48.590;8.854;2023-07-20T12:28:00;0.30;;;0.30;;
18224;SDS011;9237;48.590;8.854;2023-07-20T12:30:28;0.20;;;0.20;;
18224;SDS011;9237;48.590;8.854;2023-07-20T12:32:55;0.20;;;0.20;;
18224;SDS011;9237;48.590;8.854;2023-07-20T12:35:22;0.20;;;0.20;;
18224;SDS011;9237;48.590;8.854;2023-07-20T12:37:50;0.30;;;0.30;;
18224;SDS011;9237;48.590;8.854;2023-07-20T12:40:18;0.20;;;0.20;;
18224;SDS011;9237;48.590;8.854;2023-07-20T12:42:46;0.20;;;0.20;;
18224;SDS011;9237;48.590;8.854;2023-07-20T12:45:13;0.20;;;0.20;;
18224;SDS011;9237;48.590;8.854;2023-07-20T12:47:40;0.20;;;0.20;;
18224;SDS011;9237;48.590;8.854;2023-07-20T12:50:08;0.20;;;0.20;;
18224;SDS011;9237;48.590;8.854;2023-07-20T12:52:35;0.30;;;0.30;;
18224;SDS011;9237;48.590;8.854;2023-07-20T12:55:05;0.22;;;0.22;;
18224;SDS011;9237;48.590;8.854;2023-07-20T12:57:33;0.25;;;0.25;;
18224;SDS011;9237;48.590;8.854;2023-07-20T13:00:00;0.22;;;0.22;;
18224;SDS011;9237;48.590;8.854;2023-07-20T13:02:28;0.20;;;0.20;;
18224;SDS011;9237;48.590;8.854;2023-07-20T13:04:55;0.30;;;0.30;;
18224;SDS011;9237;48.590;8.854;2023-07-20T13:07:28;0.28;;;0.28;;
18224;SDS011;9237;48.590;8.854;2023-07-20T13:09:56;0.20;;;0.20;;
18224;SDS011;9237;48.590;8.854;2023-07-20T13:12:26;0.30;;;0.30;;
18224;SDS011;9237;48.590;8.854;2023-07-20T13:14:53;0.20;;;0.20;;
18224;SDS011;9237;48.590;8.854;2023-07-20T13:17:21;0.20;;;0.20;;
18224;SDS011;9237;48.590;8.854;2023-07-20T13:19:47;0.30;;;0.30;;
18224;SDS011;9237;48.590;8.854;2023-07-20T13:22:14;0.30;;;0.30;;
18224;SDS011;9237;48.590;8.854;2023-07-20T13:24:41;0.22;;;0.22;;
18224;SDS011;9237;48.590;8.854;2023-07-20T13:27:10;0.30;;;0.30;;
18224;SDS011;9237;48.590;8.854;2023-07-20T13:29:38;0.30;;;0.30;;
18224;SDS011;9237;48.590;8.854;2023-07-20T13:32:06;0.25;;;0.25;;
18224;SDS011;9237;48.590;8.854;2023-07-20T13:34:34;0.30;;;0.30;;
18224;SDS011;9237;48.590;8.854;2023-07-20T13:37:01;0.20;;;0.20;;
18224;SDS011;9237;48.590;8.854;2023-07-20T13:39:28;0.20;;;0.20;;
18224;SDS011;9237;48.590;8.854;2023-07-20T13:41:55;0.30;;;0.30;;
18224;SDS011;9237;48.590;8.854;2023-07-20T13:44:22;0.22;;;0.22;;
18224;SDS011;9237;48.590;8.854;2023-07-20T13:46:50;0.30;;;0.30;;
18224;SDS011;9237;48.590;8.854;2023-07-20T13:49:17;0.30;;;0.30;;
18224;SDS011;9237;48.590;8.854;2023-07-20T13:51:43;0.30;;;0.30;;
18224;SDS011;9237;48.590;8.854;2023-07-20T13:54:10;0.30;;;0.30;;
18224;SDS011;9237;48.590;8.854;2023-07-20T13:56:37;0.35;;;0.35;;
18224;SDS011;9237;48.590;8.854;2023-07-20T13:59:04;0.30;;;0.30;;
18224;SDS011;9237;48.590;8.854;2023-07-20T14:01:31;0.30;;;0.30;;
18224;SDS011;9237;48.590;8.854;2023-07-20T14:04:00;0.20;;;0.20;;
18224;SDS011;9237;48.590;8.854;2023-07-20T14:06:29;0.20;;;0.20;;
18224;SDS011;9237;48.590;8.854;2023-07-20T14:08:57;0.30;;;0.30;;
18224;SDS011;9237;48.590;8.854;2023-07-20T14:11:24;0.20;;;0.20;;
18224;SDS011;9237;48.590;8.854;2023-07-20T14:13:51;0.20;;;0.20;;
18224;SDS011;9237;48.590;8.854;2023-07-20T14:16:19;0.20;;;0.20;;
18224;SDS011;9237;48.590;8.854;2023-07-20T14:18:46;0.20;;;0.20;;
18224;SDS011;9237;48.590;8.854;2023-07-20T14:21:15;0.20;;;0.20;;
18224;SDS011;9237;48.590;8.854;2023-07-20T14:23:44;0.30;;;0.30;;
18224;SDS011;9237;48.590;8.854;2023-07-20T14:26:11;0.30;;;0.30;;
18224;SDS011;9237;48.590;8.854;2023-07-20T14:28:38;0.30;;;0.30;;
18224;SDS011;9237;48.590;8.854;2023-07-20T14:31:05;0.30;;;0.30;;
18224;SDS011;9237;48.590;8.854;2023-07-20T14:33:32;0.30;;;0.30;;
18224;SDS011;9237;48.590;8.854;2023-07-20T14:36:00;0.30;;;0.30;;
18224;SDS011;9237;48.590;8.854;2023-07-20T14:38:28;0.30;;;0.30;;
18224;SDS011;9237;48.590;8.854;2023-07-20T14:40:56;0.30;;;0.30;;
18224;SDS011;9237;48.590;8.854;2023-07-20T14:43:23;0.30;;;0.30;;
18224;SDS011;9237;48.590;8.854;2023-07-20T14:45:50;0.30;;;0.30;;
18224;SDS011;9237;48.590;8.854;2023-07-20T14:48:17;0.30;;;0.30;;
18224;SDS011;9237;48.590;8.854;2023-07-20T14:50:44;0.30;;;0.30;;
18224;SDS011;9237;48.590;8.854;2023-07-20T14:53:12;0.30;;;0.30;;
18224;SDS011;9237;48.590;8.854;2023-07-20T14:55:41;0.30;;;0.30;;
18224;SDS011;9237;48.590;8.854;2023-07-20T14:58:09;0.30;;;0.30;;
18224;SDS011;9237;48.590;8.854;2023-07-20T15:00:36;0.22;;;0.22;;
18224;SDS011;9237;48.590;8.854;2023-07-20T15:03:03;0.30;;;0.30;;
18224;SDS011;9237;48.590;8.854;2023-07-20T15:05:30;0.20;;;0.20;;
18224;SDS011;9237;48.590;8.854;2023-07-20T15:07:58;0.40;;;0.40;;
18224;SDS011;9237;48.590;8.854;2023-07-20T15:10:25;0.35;;;0.35;;
18224;SDS011;9237;48.590;8.854;2023-07-20T15:12:53;0.40;;;0.40;;